Pagina principală
METAR-TAF:

METAR-TAF

Aeroporturi :

Taranto, Italia

Latitudine: 40-31N, longitudine: 017-24E, elevație: 64 m

Observații meteo curente

Raportul a fost făcut în urmă cu 1 oră și 26 de minute, la 10:50 UTC
Vânt 8 kt de la Sud/Sud-est, variabil între Sud-est și Sud
Temperatură 30°C
Umiditate 33%
Presiune 1012 hPa
Vizibilitate de 10 km sau mai mult
nu există nori sub 1.500 m și nici cumulonimbus

METAR: LIBG 161050Z 16008KT 130V190 CAVOK 30/12 Q1012

Ora: 14:16 (12:16 UTC)

Prognoză

Raportul a fost făcut în urmă cu 4 ore și 16 de minute, la 08:00 UTC
Prognoză valabilă de la 16 ora 09 UTC la 16 ora 18 UTC
Vânt 10 kt de la Sud/Sud-est
Vizibilitate de 10 km sau mai mult
nu există nori sub 1.500 m și nici cumulonimbus
Devenind
de la 16 ora 16 UTC la 16 ora 18 UTC
Vânt 5 kt din direcții variabile

TAF: LIBG 160800Z 1609/1618 16010KT CAVOK BECMG 1616/1618 VRB05KT

Observații și prognoze meteo pentru peste 4.000 de aeroporturi (rapoarte METAR și TAF).

Stațiile disponibile sunt reprezentate pe hartă prin puncte galbene și roșii.

Țineți indicatorul mouse-ului pe punctul dorit pentru a vedea denumirea stației.

Apoi, faceți clic pentru a vedea observațiile și prognozele meteorologice.

Pentru a schimba harta: Pentru mărire, faceți clic pe butoanele verzi cu cruce neagră; pentru micșorare, pe butonul verde cu o liniuță; pentru hărți învecinate, pe săgețile verzi.


METAR-TAF: